sensor_id;sensor_type;location;lat;lon;timestamp;P1;durP1;ratioP1;P2;durP2;ratioP2
21899;SDS011;11114;50.658;12.704;2024-02-14T17:02:33;19.05;;;17.45;;
21899;SDS011;11114;50.658;12.704;2024-02-14T17:05:32;20.05;;;18.08;;
21899;SDS011;11114;50.658;12.704;2024-02-14T17:08:26;20.05;;;18.20;;
21899;SDS011;11114;50.658;12.704;2024-02-14T17:11:24;19.17;;;17.63;;
21899;SDS011;11114;50.658;12.704;2024-02-14T17:14:22;19.02;;;17.42;;
21899;SDS011;11114;50.658;12.704;2024-02-14T17:17:11;18.70;;;17.05;;
21899;SDS011;11114;50.658;12.704;2024-02-14T17:20:07;19.10;;;17.52;;
21899;SDS011;11114;50.658;12.704;2024-02-14T17:23:00;18.92;;;17.25;;
21899;SDS011;11114;50.658;12.704;2024-02-14T17:25:54;19.15;;;17.65;;
21899;SDS011;11114;50.658;12.704;2024-02-14T17:28:45;18.55;;;17.15;;
21899;SDS011;11114;50.658;12.704;2024-02-14T17:31:58;19.17;;;17.50;;
21899;SDS011;11114;50.658;12.704;2024-02-14T17:35:09;19.13;;;17.63;;
21899;SDS011;11114;50.658;12.704;2024-02-14T17:38:05;18.60;;;17.17;;
21899;SDS011;11114;50.658;12.704;2024-02-14T17:40:52;18.67;;;17.27;;
21899;SDS011;11114;50.658;12.704;2024-02-14T17:43:43;18.98;;;17.40;;
21899;SDS011;11114;50.658;12.704;2024-02-14T17:46:37;18.52;;;17.15;;
21899;SDS011;11114;50.658;12.704;2024-02-14T17:49:31;18.67;;;17.15;;
21899;SDS011;11114;50.658;12.704;2024-02-14T17:52:21;18.70;;;17.20;;
21899;SDS011;11114;50.658;12.704;2024-02-14T17:55:07;18.13;;;16.75;;
21899;SDS011;11114;50.658;12.704;2024-02-14T17:57:56;18.88;;;17.27;;
21899;SDS011;11114;50.658;12.704;2024-02-14T18:00:48;18.05;;;16.75;;
21899;SDS011;11114;50.658;12.704;2024-02-14T18:03:35;18.88;;;17.38;;
21899;SDS011;11114;50.658;12.704;2024-02-14T18:06:21;19.05;;;17.55;;
21899;SDS011;11114;50.658;12.704;2024-02-14T18:09:08;18.58;;;17.17;;
21899;SDS011;11114;50.658;12.704;2024-02-14T18:11:56;19.00;;;17.40;;
21899;SDS011;11114;50.658;12.704;2024-02-14T18:14:43;19.08;;;17.55;;
21899;SDS011;11114;50.658;12.704;2024-02-14T18:17:29;17.90;;;16.60;;
21899;SDS011;11114;50.658;12.704;2024-02-14T18:20:16;18.90;;;17.50;;
21899;SDS011;11114;50.658;12.704;2024-02-14T18:23:02;17.98;;;16.58;;
21899;SDS011;11114;50.658;12.704;2024-02-14T18:25:49;18.75;;;17.25;;
21899;SDS011;11114;50.658;12.704;2024-02-14T18:28:36;19.30;;;17.80;;
21899;SDS011;11114;50.658;12.704;2024-02-14T18:31:22;18.58;;;17.13;;
21899;SDS011;11114;50.658;12.704;2024-02-14T18:34:09;18.50;;;17.00;;
21899;SDS011;11114;50.658;12.704;2024-02-14T18:36:55;18.70;;;17.20;;
21899;SDS011;11114;50.658;12.704;2024-02-14T18:39:42;18.85;;;17.25;;
21899;SDS011;11114;50.658;12.704;2024-02-14T18:42:28;18.13;;;16.73;;
21899;SDS011;11114;50.658;12.704;2024-02-14T18:45:15;18.65;;;16.92;;
21899;SDS011;11114;50.658;12.704;2024-02-14T18:48:04;18.15;;;16.75;;
21899;SDS011;11114;50.658;12.704;2024-02-14T18:50:52;17.95;;;16.65;;
21899;SDS011;11114;50.658;12.704;2024-02-14T18:53:38;18.50;;;17.00;;
21899;SDS011;11114;50.658;12.704;2024-02-14T18:56:25;18.63;;;17.13;;
21899;SDS011;11114;50.658;12.704;2024-02-14T18:59:12;17.60;;;16.30;;
21899;SDS011;11114;50.658;12.704;2024-02-14T19:02:00;17.98;;;16.63;;
21899;SDS011;11114;50.658;12.704;2024-02-14T19:04:46;18.15;;;16.75;;
21899;SDS011;11114;50.658;12.704;2024-02-14T19:07:32;18.20;;;16.65;;
21899;SDS011;11114;50.658;12.704;2024-02-14T19:10:19;18.17;;;16.67;;
21899;SDS011;11114;50.658;12.704;2024-02-14T19:13:05;18.02;;;16.63;;
21899;SDS011;11114;50.658;12.704;2024-02-14T19:15:53;17.77;;;16.48;;
21899;SDS011;11114;50.658;12.704;2024-02-14T19:18:40;17.58;;;16.17;;
21899;SDS011;11114;50.658;12.704;2024-02-14T19:21:27;17.55;;;16.23;;
21899;SDS011;11114;50.658;12.704;2024-02-14T19:24:13;18.05;;;16.65;;
21899;SDS011;11114;50.658;12.704;2024-02-14T19:26:59;17.73;;;16.33;;
21899;SDS011;11114;50.658;12.704;2024-02-14T19:29:46;17.60;;;16.15;;
21899;SDS011;11114;50.658;12.704;2024-02-14T19:32:33;17.95;;;16.40;;
21899;SDS011;11114;50.658;12.704;2024-02-14T19:35:25;17.73;;;16.40;;
21899;SDS011;11114;50.658;12.704;2024-02-14T19:38:12;18.20;;;16.80;;
21899;SDS011;11114;50.658;12.704;2024-02-14T19:40:58;17.77;;;16.45;;
21899;SDS011;11114;50.658;12.704;2024-02-14T19:43:45;17.50;;;16.20;;
21899;SDS011;11114;50.658;12.704;2024-02-14T19:46:31;17.70;;;16.30;;
21899;SDS011;11114;50.658;12.704;2024-02-14T19:49:19;17.90;;;16.50;;
21899;SDS011;11114;50.658;12.704;2024-02-14T19:52:09;18.20;;;16.80;;
21899;SDS011;11114;50.658;12.704;2024-02-14T19:54:59;18.30;;;16.90;;
21899;SDS011;11114;50.658;12.704;2024-02-14T19:57:47;18.90;;;17.30;;
21899;SDS011;11114;50.658;12.704;2024-02-14T20:00:35;18.58;;;17.08;;
21899;SDS011;11114;50.658;12.704;2024-02-14T20:03:22;18.67;;;17.25;;
21899;SDS011;11114;50.658;12.704;2024-02-14T20:06:08;18.13;;;16.58;;
21899;SDS011;11114;50.658;12.704;2024-02-14T20:08:55;18.60;;;17.10;;
21899;SDS011;11114;50.658;12.704;2024-02-14T20:14:32;19.27;;;17.67;;
21899;SDS011;11114;50.658;12.704;2024-02-14T20:17:20;18.55;;;17.05;;
21899;SDS011;11114;50.658;12.704;2024-02-14T21:16:13;18.63;;;17.13;;
21899;SDS011;11114;50.658;12.704;2024-02-14T21:18:59;18.00;;;16.70;;
21899;SDS011;11114;50.658;12.704;2024-02-14T21:21:52;18.05;;;16.65;;
21899;SDS011;11114;50.658;12.704;2024-02-14T21:39:59;17.90;;;16.50;;
21899;SDS011;11114;50.658;12.704;2024-02-14T21:51:51;18.50;;;17.10;;
21899;SDS011;11114;50.658;12.704;2024-02-14T22:16:30;18.10;;;16.80;;
21899;SDS011;11114;50.658;12.704;2024-02-14T22:19:17;18.00;;;16.58;;
21899;SDS011;11114;50.658;12.704;2024-02-14T22:22:05;17.67;;;16.25;;
21899;SDS011;11114;50.658;12.704;2024-02-14T22:24:52;17.65;;;16.35;;
21899;SDS011;11114;50.658;12.704;2024-02-14T22:27:38;16.95;;;15.75;;
21899;SDS011;11114;50.658;12.704;2024-02-14T22:30:26;17.55;;;16.15;;
21899;SDS011;11114;50.658;12.704;2024-02-14T22:33:12;17.67;;;16.38;;
21899;SDS011;11114;50.658;12.704;2024-02-14T22:36:01;17.98;;;16.67;;
21899;SDS011;11114;50.658;12.704;2024-02-14T22:38:48;18.13;;;16.83;;
21899;SDS011;11114;50.658;12.704;2024-02-14T22:41:35;17.80;;;16.50;;
21899;SDS011;11114;50.658;12.704;2024-02-14T22:44:24;17.88;;;16.48;;
21899;SDS011;11114;50.658;12.704;2024-02-14T22:47:10;17.77;;;16.38;;
